Time;durP1;ratioP1;P1;durP2;ratioP2;P2;SDS_P1;SDS_P2;PMS_P1;PMS_P2;Temp;Humidity;BMP_temperature;BMP_pressure;BME280_temperature;BME280_humidity;BME280_pressure;Samples;Min_cycle;Max_cycle;Signal;HPM_P1;HPM_P2
2021/01/11 00:01:25;;;;;;;2.60;1.60;;;;;;;22.49;40.92;94484.19;5013396;28;20022;-72
2021/01/11 00:03:50;;;;;;;2.28;1.63;;;;;;;22.51;40.90;94491.84;5013806;28;20049;-72
2021/01/11 00:06:16;;;;;;;2.38;1.60;;;;;;;22.47;41.01;94485.97;5013554;28;20043;-72
2021/01/11 00:08:41;;;;;;;1.75;1.50;;;;;;;22.47;40.75;94485.97;5013289;28;20088;-72
2021/01/11 00:11:07;;;;;;;2.15;1.63;;;;;;;22.44;41.22;94481.56;5013353;28;20029;-72
2021/01/11 00:13:32;;;;;;;2.42;1.65;;;;;;;22.36;41.03;94475.25;5013576;28;20499;-72
2021/01/11 00:15:58;;;;;;;1.95;1.50;;;;;;;22.38;41.14;94480.91;5013200;28;20416;-72
2021/01/11 00:18:23;;;;;;;2.88;1.73;;;;;;;22.35;41.11;94479.22;5012895;28;20034;-72
2021/01/11 00:20:49;;;;;;;2.15;1.50;;;;;;;22.35;41.03;94473.78;5012806;28;20531;-72
2021/01/11 00:23:14;;;;;;;2.10;1.65;;;;;;;22.31;41.02;94476.06;5012263;28;20034;-72
2021/01/11 00:25:40;;;;;;;2.05;1.45;;;;;;;22.14;40.87;94459.19;4995297;28;20042;-72
2021/01/11 00:28:05;;;;;;;2.30;1.65;;;;;;;22.26;41.26;94476.16;4995712;28;20426;-72
2021/01/11 00:30:31;;;;;;;1.98;1.70;;;;;;;21.91;41.13;94430.06;5011883;28;20423;-71
2021/01/11 00:32:56;;;;;;;1.95;1.60;;;;;;;22.24;41.13;94482.09;5011851;28;20060;-72
2021/01/11 00:35:21;;;;;;;2.25;1.52;;;;;;;22.20;41.31;94494.47;5011832;28;20034;-71
2021/01/11 00:37:47;;;;;;;2.20;1.50;;;;;;;22.15;41.50;94487.88;5013097;28;20026;-72
2021/01/11 00:40:13;;;;;;;2.22;1.60;;;;;;;22.14;41.34;94464.63;5011698;28;20033;-72
2021/01/11 00:42:38;;;;;;;1.77;1.30;;;;;;;22.05;41.47;94445.22;5013004;28;20026;-72
2021/01/11 00:45:05;;;;;;;2.35;1.40;;;;;;;22.09;41.61;94440.97;5012987;28;20026;-72
2021/01/11 00:47:30;;;;;;;2.03;1.40;;;;;;;21.92;41.53;94415.25;5012682;28;20033;-71
2021/01/11 00:49:56;;;;;;;2.35;1.50;;;;;;;22.08;41.41;94442.22;5011065;28;20022;-72
2021/01/11 00:52:21;;;;;;;2.42;1.50;;;;;;;22.07;41.41;94448.88;5011338;28;20025;-72
2021/01/11 00:54:47;;;;;;;2.40;1.60;;;;;;;22.05;41.50;94445.97;5012396;28;20035;-72
2021/01/11 00:57:12;;;;;;;1.63;1.40;;;;;;;22.03;41.54;94443.03;4995212;28;20022;-72
2021/01/11 00:59:38;;;;;;;2.28;1.52;;;;;;;22.02;41.62;94430.69;5010993;28;20467;-71
2021/01/11 01:02:03;;;;;;;1.90;1.40;;;;;;;21.99;41.53;94404.50;5270378;23;20576;-72
2021/01/11 01:04:29;;;;;;;2.10;1.40;;;;;;;21.95;41.60;94393.19;4949694;28;20051;-72
2021/01/11 01:07:02;;;;;;;1.98;1.50;;;;;;;21.95;41.70;94382.31;4952312;28;20038;-73
2021/01/11 01:09:27;;;;;;;2.13;1.50;;;;;;;21.80;41.52;94380.56;4966967;28;20059;-73
2021/01/11 01:11:53;;;;;;;2.13;1.40;;;;;;;21.92;41.70;94404.38;4966964;28;20419;-72
2021/01/11 01:14:18;;;;;;;1.98;1.38;;;;;;;21.91;41.84;94391.28;4967382;28;20035;-72
2021/01/11 01:16:44;;;;;;;2.13;1.40;;;;;;;21.87;41.75;94374.53;4952241;28;20035;-72
2021/01/11 01:19:09;;;;;;;2.35;1.50;;;;;;;21.73;41.82;94353.97;4951801;28;20031;-72
2021/01/11 01:21:35;;;;;;;2.45;1.50;;;;;;;21.73;42.16;94359.41;4951918;28;20027;-72
2021/01/11 01:24:00;;;;;;;2.28;1.63;;;;;;;21.81;41.73;94371.16;4951907;28;20042;-72
2021/01/11 01:26:26;;;;;;;2.35;1.60;;;;;;;21.81;41.87;94382.03;4951957;28;20023;-72
2021/01/11 01:28:51;;;;;;;2.20;1.60;;;;;;;21.79;41.89;94406.28;4952025;28;20519;-73
2021/01/11 01:31:16;;;;;;;1.73;1.25;;;;;;;21.76;41.81;94408.03;4952039;28;20031;-72
2021/01/11 01:33:42;;;;;;;1.60;1.40;;;;;;;21.75;41.76;94411.25;4951661;28;20035;-72
2021/01/11 01:36:08;;;;;;;1.90;1.35;;;;;;;21.77;41.91;94419.63;4952032;28;20031;-72
2021/01/11 01:38:33;;;;;;;2.45;1.42;;;;;;;21.74;41.88;94432.25;4951195;28;20031;-72
2021/01/11 01:40:59;;;;;;;1.63;1.30;;;;;;;21.74;41.80;94448.56;4951787;28;20034;-72
2021/01/11 01:43:24;;;;;;;1.65;1.20;;;;;;;21.74;41.91;94447.84;4951765;28;20034;-72
2021/01/11 01:45:50;;;;;;;2.40;1.60;;;;;;;21.71;42.00;94459.72;4951908;28;20509;-72
2021/01/11 01:48:15;;;;;;;1.77;1.27;;;;;;;21.71;41.77;94476.03;4951463;28;20411;-72
2021/01/11 01:50:42;;;;;;;1.80;1.50;;;;;;;21.69;41.91;94497.56;4950315;29;20086;-72
2021/01/11 01:53:07;;;;;;;2.03;1.30;;;;;;;21.66;42.12;94523.03;4951584;28;20027;-72
2021/01/11 01:55:35;;;;;;;1.92;1.40;;;;;;;21.67;41.98;94557.84;4951567;28;20024;-72
2021/01/11 01:58:02;;;;;;;1.98;1.40;;;;;;;21.68;42.07;94558.56;4965797;28;20057;-72
2021/01/11 02:00:27;;;;;;;2.28;1.50;;;;;;;21.66;41.97;94552.94;4951588;28;20054;-72
2021/01/11 02:02:53;;;;;;;2.30;1.52;;;;;;;21.61;42.20;94548.25;4951048;28;20055;-72
2021/01/11 02:05:18;;;;;;;2.22;1.55;;;;;;;21.62;42.03;94553.19;4951671;28;20034;-72
2021/01/11 02:08:00;;;;;;;2.08;1.50;;;;;;;21.60;42.15;94535.94;4951218;28;20082;-73
2021/01/11 02:10:50;;;;;;;2.20;1.60;;;;;;;21.61;42.12;94531.97;4950755;28;20027;-72
2021/01/11 02:13:30;;;;;;;2.00;1.40;;;;;;;21.58;42.08;94541.88;4951172;28;20030;-72
2021/01/11 02:16:23;;;;;;;1.55;1.20;;;;;;;21.56;42.10;94546.34;4950992;28;20027;-72
2021/01/11 02:18:52;;;;;;;2.45;1.40;;;;;;;21.56;42.35;94562.63;4966272;28;20062;-72
2021/01/11 02:21:48;;;;;;;1.70;1.30;;;;;;;21.55;42.20;94569.31;4951200;28;20130;-72
2021/01/11 02:24:26;;;;;;;1.75;1.20;;;;;;;21.54;42.10;94581.44;4951001;28;20062;-72
2021/01/11 02:27:19;;;;;;;1.55;1.20;;;;;;;21.52;42.13;94589.34;4950906;28;20070;-72
2021/01/11 02:30:03;;;;;;;2.13;1.33;;;;;;;21.50;42.20;94592.56;4965762;28;20043;-72
2021/01/11 02:32:29;;;;;;;2.38;1.55;;;;;;;21.52;41.95;94621.94;4951045;28;20031;-72
2021/01/11 02:34:54;;;;;;;2.45;1.50;;;;;;;21.49;42.19;94622.94;4965627;28;20129;-72
2021/01/11 02:37:20;;;;;;;1.92;1.30;;;;;;;21.49;42.25;94634.56;4949696;28;20100;-72
2021/01/11 02:39:46;;;;;;;2.03;1.42;;;;;;;21.48;42.29;94665.69;4950920;28;20027;-72
2021/01/11 02:42:11;;;;;;;2.03;1.30;;;;;;;21.48;42.23;94686.69;4965736;28;20027;-72
2021/01/11 02:44:37;;;;;;;2.15;1.30;;;;;;;21.48;42.24;94697.56;4951530;28;20020;-73
2021/01/11 02:47:02;;;;;;;1.85;1.20;;;;;;;21.49;42.25;94688.16;4954754;28;20023;-73
2021/01/11 02:49:30;;;;;;;1.70;1.30;;;;;;;21.32;42.36;94663.06;4954890;28;20090;-73
2021/01/11 02:52:14;;;;;;;2.22;1.33;;;;;;;21.45;42.17;94660.50;4953716;28;20500;-73
2021/01/11 02:54:41;;;;;;;2.20;1.42;;;;;;;21.41;42.26;94645.72;4949917;28;20034;-72
2021/01/11 02:57:23;;;;;;;1.60;1.10;;;;;;;21.41;42.27;94634.84;4934389;28;20107;-72
2021/01/11 03:00:07;;;;;;;1.60;1.40;;;;;;;21.39;42.43;94613.63;4954708;28;20047;-73
2021/01/11 03:02:36;;;;;;;1.60;1.20;;;;;;;21.40;42.18;94587.94;4953297;29;20194;-72
2021/01/11 03:05:01;;;;;;;2.10;1.30;;;;;;;21.38;42.33;94565.97;4954671;28;20027;-72
2021/01/11 03:07:27;;;;;;;1.95;1.13;;;;;;;21.37;42.29;94545.47;4954256;28;20510;-73
2021/01/11 03:09:52;;;;;;;1.83;1.15;;;;;;;21.37;42.29;94545.47;4954245;28;20522;-72
2021/01/11 03:12:18;;;;;;;2.13;1.10;;;;;;;21.35;42.28;94520.81;4954768;28;20031;-72
2021/01/11 03:14:43;;;;;;;1.75;1.17;;;;;;;21.35;42.29;94506.50;4954450;28;20491;-73
2021/01/11 03:17:09;;;;;;;1.77;1.23;;;;;;;21.19;42.44;94486.38;4953059;28;20019;-72
2021/01/11 03:19:34;;;;;;;1.45;1.05;;;;;;;21.31;42.41;94487.75;4954293;28;20050;-72
2021/01/11 03:22:00;;;;;;;1.88;1.20;;;;;;;21.34;42.28;94481.31;4952685;28;20054;-73
2021/01/11 03:24:26;;;;;;;2.22;1.45;;;;;;;21.29;42.21;94467.81;4953286;28;20031;-73
2021/01/11 03:26:51;;;;;;;1.88;1.10;;;;;;;21.31;42.32;94460.59;4953870;28;20028;-72
2021/01/11 03:29:17;;;;;;;2.30;1.30;;;;;;;21.30;42.28;94459.16;4954470;28;20117;-73
2021/01/11 03:31:43;;;;;;;2.03;1.20;;;;;;;21.14;42.34;94422.03;4953858;28;20488;-72
2021/01/11 03:34:09;;;;;;;2.00;1.20;;;;;;;21.14;42.18;94408.44;4968750;28;20031;-73
2021/01/11 03:36:35;;;;;;;1.83;1.13;;;;;;;21.26;42.41;94414.53;4954067;28;20055;-72
2021/01/11 03:39:00;;;;;;;1.65;1.20;;;;;;;21.30;42.26;94431.25;4954177;28;20031;-72
2021/01/11 03:41:26;;;;;;;2.08;1.25;;;;;;;21.27;42.39;94430.31;4953864;28;20086;-72
2021/01/11 03:43:51;;;;;;;1.58;1.02;;;;;;;21.27;42.31;94433.03;4953853;28;20026;-72
2021/01/11 03:46:17;;;;;;;1.73;1.10;;;;;;;21.23;42.37;94431.81;4953741;28;20019;-72
2021/01/11 03:48:43;;;;;;;2.17;1.25;;;;;;;21.25;42.38;94421.91;4953847;28;20054;-72
2021/01/11 03:51:08;;;;;;;1.92;1.33;;;;;;;21.35;42.26;94427.75;4953809;28;20035;-73
2021/01/11 03:53:34;;;;;;;2.05;1.10;;;;;;;21.40;42.26;94430.41;4953502;28;20027;-73
2021/01/11 03:56:03;;;;;;;1.92;1.20;;;;;;;21.45;42.04;94424.19;4953560;28;20034;-72
2021/01/11 03:58:28;;;;;;;1.50;1.08;;;;;;;21.54;42.10;94424.59;4967958;28;20035;-72
2021/01/11 04:00:54;;;;;;;1.42;0.90;;;;;;;21.60;41.96;94459.88;4953680;28;20419;-73
2021/01/11 04:03:19;;;;;;;1.88;1.13;;;;;;;21.65;42.03;94483.50;4953784;28;20161;-73
2021/01/11 04:05:45;;;;;;;1.42;1.08;;;;;;;21.68;41.88;94504.22;4953499;28;20023;-72
2021/01/11 04:08:11;;;;;;;1.73;1.08;;;;;;;21.72;41.80;94515.53;4953451;28;20038;-73
2021/01/11 04:10:37;;;;;;;1.75;1.20;;;;;;;21.72;41.95;94520.97;4953016;28;20023;-73
2021/01/11 04:13:02;;;;;;;1.55;0.95;;;;;;;21.62;41.66;94496.13;4967644;28;20114;-72
2021/01/11 04:15:28;;;;;;;1.70;1.00;;;;;;;21.54;41.77;94489.06;4968337;28;20035;-72
2021/01/11 04:17:54;;;;;;;1.70;1.10;;;;;;;21.77;41.88;94509.31;4953320;28;20035;-72
2021/01/11 04:20:19;;;;;;;1.70;1.00;;;;;;;21.67;41.83;94498.06;4968324;28;20266;-72
2021/01/11 04:22:45;;;;;;;2.38;1.05;;;;;;;21.80;41.74;94500.16;4953016;28;20066;-72
2021/01/11 04:25:10;;;;;;;1.70;1.10;;;;;;;21.84;41.76;94452.41;4953091;28;20035;-73
2021/01/11 04:27:36;;;;;;;1.45;1.00;;;;;;;21.87;41.62;94423.44;4953088;28;20032;-72
2021/01/11 04:30:06;;;;;;;1.77;1.23;;;;;;;21.90;41.65;94444.19;4952929;28;20500;-72
2021/01/11 04:32:31;;;;;;;1.70;1.00;;;;;;;21.92;41.58;94464.91;4952754;28;20031;-72
2021/01/11 04:34:57;;;;;;;2.10;1.27;;;;;;;21.85;41.62;94470.16;4968040;28;20038;-72
2021/01/11 04:37:22;;;;;;;1.73;1.10;;;;;;;21.93;41.41;94452.78;4953014;28;20031;-72
2021/01/11 04:39:47;;;;;;;1.65;1.10;;;;;;;21.94;41.44;94304.00;4953044;28;20495;-72
2021/01/11 04:42:13;;;;;;;1.58;0.82;;;;;;;21.94;41.50;94266.69;4952770;28;20027;-72
2021/01/11 04:44:38;;;;;;;1.48;0.93;;;;;;;21.95;41.44;94262.72;4951827;28;20038;-73
2021/01/11 04:47:04;;;;;;;1.40;0.93;;;;;;;22.00;41.30;94301.94;4951348;29;20499;-73
2021/01/11 04:49:30;;;;;;;1.80;1.00;;;;;;;22.01;41.35;94304.13;4952646;28;20054;-73
2021/01/11 04:51:56;;;;;;;1.30;0.90;;;;;;;22.04;41.39;94313.97;4950961;28;20035;-72
2021/01/11 04:54:21;;;;;;;1.35;0.90;;;;;;;22.05;41.43;94309.28;4951231;28;20031;-72
2021/01/11 04:56:48;;;;;;;1.30;0.88;;;;;;;22.05;41.29;94315.44;4952649;28;20027;-72
2021/01/11 04:59:20;;;;;;;1.30;0.70;;;;;;;22.07;41.30;94333.97;4952287;28;20038;-73
2021/01/11 05:01:51;;;;;;;1.50;1.00;;;;;;;22.08;41.11;94347.06;4952486;28;20444;-73
2021/01/11 05:04:17;;;;;;;1.48;0.90;;;;;;;22.09;41.22;94347.78;4951054;28;20455;-72
2021/01/11 05:06:47;;;;;;;1.50;0.80;;;;;;;22.00;41.20;94319.00;4952264;28;20027;-73
2021/01/11 05:09:15;;;;;;;1.10;0.90;;;;;;;22.07;41.30;94345.56;4951574;28;20114;-73
2021/01/11 05:11:41;;;;;;;1.98;1.00;;;;;;;22.13;41.06;94367.97;4946488;28;20047;-73
2021/01/11 05:14:07;;;;;;;1.98;1.00;;;;;;;22.14;41.07;94358.59;4950629;28;20038;-75
2021/01/11 05:16:32;;;;;;;1.25;0.80;;;;;;;22.24;41.00;94392.34;4951343;28;20027;-71
2021/01/11 05:19:26;;;;;;;1.83;1.00;;;;;;;22.27;41.03;94375.00;4951482;28;20038;-71
2021/01/11 05:21:52;;;;;;;1.13;0.80;;;;;;;22.25;40.90;94388.34;4951437;28;20023;-71
2021/01/11 05:24:33;;;;;;;2.85;0.90;;;;;;;22.33;40.98;94370.22;4952841;28;20417;-71
2021/01/11 05:27:00;;;;;;;2.08;1.00;;;;;;;22.35;40.78;94370.41;4952231;28;20031;-71
2021/01/11 05:29:26;;;;;;;1.52;0.90;;;;;;;22.39;40.96;94381.72;4951789;28;20463;-70
2021/01/11 05:31:52;;;;;;;1.25;0.80;;;;;;;22.43;40.59;94371.28;4955742;28;20047;-71
2021/01/11 05:34:18;;;;;;;1.20;0.65;;;;;;;22.36;40.49;94366.44;4953945;28;20306;-71
2021/01/11 05:36:44;;;;;;;1.52;1.00;;;;;;;22.58;40.29;94404.19;4954191;28;20085;-70
2021/01/11 05:39:09;;;;;;;1.42;0.95;;;;;;;22.66;40.43;94410.47;4952020;28;20046;-70
2021/01/11 05:41:40;;;;;;;1.35;0.80;;;;;;;22.60;40.24;94393.50;4957944;28;20035;-72
2021/01/11 05:44:08;;;;;;;1.33;0.80;;;;;;;22.82;40.09;94417.66;4947960;28;20397;-71
2021/01/11 05:46:34;;;;;;;1.42;0.80;;;;;;;22.90;39.97;94403.66;4953451;28;20038;-71
2021/01/11 05:49:00;;;;;;;1.15;0.80;;;;;;;22.97;39.90;94413.97;4956729;28;20039;-71
2021/01/11 05:51:29;;;;;;;1.30;0.95;;;;;;;23.10;39.20;94400.34;4953753;28;20519;-73
2021/01/11 05:53:55;;;;;;;1.58;1.00;;;;;;;23.17;39.71;94399.75;4950035;28;20027;-71
2021/01/11 05:56:21;;;;;;;1.67;0.88;;;;;;;23.28;39.36;94398.81;4950955;28;20027;-73
2021/01/11 05:59:05;;;;;;;1.30;0.90;;;;;;;23.31;39.39;94393.03;4951071;28;20028;-71
2021/01/11 06:01:31;;;;;;;2.15;1.17;;;;;;;23.37;39.02;94412.03;4949274;28;20027;-74
2021/01/11 06:03:57;;;;;;;1.55;0.95;;;;;;;23.49;38.90;94403.13;4929737;28;20104;-75
2021/01/11 06:06:23;;;;;;;1.38;0.82;;;;;;;23.52;38.77;94423.88;4966603;28;20027;-76
2021/01/11 06:08:49;;;;;;;1.48;0.90;;;;;;;23.56;38.18;94424.28;4964713;28;20587;-75
2021/01/11 06:11:14;;;;;;;1.42;1.02;;;;;;;23.72;37.92;94420.53;4968748;28;20022;-72
2021/01/11 06:13:41;;;;;;;1.63;1.00;;;;;;;23.84;38.25;94432.69;4968580;28;20407;-73
2021/01/11 06:16:07;;;;;;;1.60;0.90;;;;;;;23.91;38.36;94449.88;4970397;28;20019;-70
2021/01/11 06:18:32;;;;;;;1.85;1.10;;;;;;;23.81;38.41;94444.63;4964504;28;20415;-72
2021/01/11 06:20:58;;;;;;;2.10;1.00;;;;;;;23.87;37.73;94427.66;4968726;28;20435;-84
2021/01/11 06:23:27;;;;;;;1.60;1.00;;;;;;;24.01;37.61;94448.19;4987329;28;20029;-75
2021/01/11 06:25:52;;;;;;;1.67;1.00;;;;;;;24.09;37.78;94483.75;4969650;28;20054;-74
2021/01/11 06:28:28;;;;;;;2.42;1.08;;;;;;;24.16;37.92;94481.13;4968712;28;20046;-74
2021/01/11 06:30:54;;;;;;;3.65;1.10;;;;;;;24.24;37.55;94481.94;4968786;28;20023;-75
2021/01/11 06:33:26;;;;;;;1.45;0.90;;;;;;;24.30;37.66;94479.81;4953924;28;20794;-76
2021/01/11 06:35:52;;;;;;;1.73;1.00;;;;;;;24.23;37.12;94453.19;4971420;28;20026;-80
2021/01/11 06:38:25;;;;;;;2.15;1.10;;;;;;;24.39;37.70;94482.16;4971722;28;20451;-79
2021/01/11 06:40:54;;;;;;;2.15;1.02;;;;;;;24.44;37.28;94484.03;4972799;28;20034;-80
2021/01/11 06:43:21;;;;;;;1.90;1.10;;;;;;;24.46;37.76;94459.66;4970415;28;20026;-82
2021/01/11 06:45:47;;;;;;;1.42;0.90;;;;;;;24.47;37.59;94455.69;4973699;28;20051;-87
2021/01/11 06:48:17;;;;;;;2.28;1.10;;;;;;;24.34;37.29;94425.69;4973208;28;20027;-82
2021/01/11 06:50:43;;;;;;;1.77;1.10;;;;;;;24.57;37.17;94459.41;4987583;28;20092;-77
2021/01/11 06:53:09;;;;;;;2.10;1.08;;;;;;;24.65;37.00;94460.22;4970928;28;20045;-77
2021/01/11 06:55:34;;;;;;;2.58;1.02;;;;;;;24.68;36.93;94475.53;4971240;28;20022;-78
2021/01/11 06:58:00;;;;;;;2.03;1.05;;;;;;;24.65;37.11;94482.81;4972933;28;20031;-79
2021/01/11 07:00:36;;;;;;;1.70;1.00;;;;;;;24.63;37.35;94484.59;4972058;28;20031;-74
2021/01/11 07:03:03;;;;;;;2.08;1.33;;;;;;;24.76;36.68;94498.22;4943209;28;20050;-74
2021/01/11 07:05:35;;;;;;;1.40;0.95;;;;;;;24.79;37.00;94508.09;4969331;28;20038;-74
2021/01/11 07:08:15;;;;;;;1.58;0.82;;;;;;;24.79;37.17;94519.00;4969855;28;20515;-73
2021/01/11 07:10:41;;;;;;;2.22;1.30;;;;;;;24.86;36.93;94511.63;4969393;28;20034;-78
2021/01/11 07:13:19;;;;;;;2.88;1.10;;;;;;;24.94;37.07;94526.09;4966212;28;20029;-82
2021/01/11 07:15:50;;;;;;;1.45;1.00;;;;;;;24.97;36.64;94524.28;4970417;28;20046;-73
2021/01/11 07:18:44;;;;;;;1.92;0.95;;;;;;;25.03;36.72;94533.84;4968558;28;20026;-78
2021/01/11 07:21:10;;;;;;;1.33;0.80;;;;;;;25.07;37.00;94517.88;4968482;28;20462;-75
2021/01/11 07:23:35;;;;;;;1.58;0.95;;;;;;;25.07;36.60;94528.81;4968691;28;20033;-74
2021/01/11 07:26:01;;;;;;;1.90;1.00;;;;;;;25.04;36.91;94532.59;4969469;28;20023;-74
2021/01/11 07:28:26;;;;;;;2.20;1.05;;;;;;;25.13;36.46;94526.69;4968602;28;20023;-74
2021/01/11 07:30:54;;;;;;;1.98;0.95;;;;;;;25.23;36.70;94541.34;4968133;28;20440;-73
2021/01/11 07:33:21;;;;;;;2.13;1.08;;;;;;;25.19;36.05;94548.41;4971365;28;20023;-73
2021/01/11 07:35:47;;;;;;;1.73;0.90;;;;;;;25.16;36.84;94558.41;4972934;28;20778;-72
2021/01/11 07:38:13;;;;;;;2.20;1.00;;;;;;;25.18;36.60;94575.00;4986883;28;20015;-72
2021/01/11 07:40:39;;;;;;;2.63;0.98;;;;;;;25.16;36.44;94574.81;4972433;28;20085;-73
2021/01/11 07:43:05;;;;;;;1.55;1.20;;;;;;;25.14;36.73;94569.16;4972288;28;20022;-72
2021/01/11 07:45:31;;;;;;;1.63;1.02;;;;;;;25.15;37.28;94603.38;4972719;28;20018;-72
2021/01/11 07:47:57;;;;;;;2.33;1.10;;;;;;;25.12;36.89;94601.72;4973200;28;20483;-73
2021/01/11 07:50:29;;;;;;;1.35;1.00;;;;;;;25.06;37.52;94603.09;4973051;28;20023;-73
2021/01/11 07:52:55;;;;;;;1.80;1.00;;;;;;;24.99;37.53;94609.97;4972866;28;20065;-73
2021/01/11 07:55:33;;;;;;;1.73;1.17;;;;;;;24.93;38.19;94611.28;4972653;28;20030;-73
2021/01/11 07:58:02;;;;;;;2.00;1.00;;;;;;;24.90;38.36;94607.66;4962446;28;20018;-72
2021/01/11 08:00:28;;;;;;;1.65;1.00;;;;;;;24.86;38.02;94618.16;4972803;28;20095;-72
2021/01/11 08:02:53;;;;;;;1.85;1.05;;;;;;;24.82;38.08;94616.28;4972436;28;20147;-71
2021/01/11 08:05:25;;;;;;;1.77;1.02;;;;;;;24.75;39.19;94646.94;4955444;28;20054;-71
2021/01/11 08:08:04;;;;;;;2.17;1.13;;;;;;;24.75;39.13;94638.75;4971790;28;20061;-71
2021/01/11 08:10:31;;;;;;;1.80;1.20;;;;;;;24.65;38.90;94624.06;4971907;28;20145;-71
2021/01/11 08:13:06;;;;;;;2.83;1.20;;;;;;;24.74;38.97;94634.53;4955027;28;20068;-70
2021/01/11 08:15:31;;;;;;;1.65;1.25;;;;;;;24.59;38.81;94615.25;4972107;28;20102;-70
2021/01/11 08:17:57;;;;;;;2.58;1.40;;;;;;;24.68;38.32;94628.47;4986836;28;20443;-71
2021/01/11 08:20:23;;;;;;;2.22;1.15;;;;;;;24.56;38.60;94616.31;4987116;28;20506;-71
2021/01/11 08:22:49;;;;;;;2.20;1.30;;;;;;;24.61;38.60;94640.03;4987255;28;20051;-71
2021/01/11 08:25:14;;;;;;;1.55;1.00;;;;;;;24.56;38.54;94654.53;4987254;28;20027;-71
2021/01/11 08:27:46;;;;;;;1.90;1.10;;;;;;;24.50;38.71;94651.19;4970630;28;20111;-71
2021/01/11 08:30:16;;;;;;;2.10;1.20;;;;;;;24.30;38.72;94654.47;4972107;28;20026;-71
2021/01/11 08:32:42;;;;;;;1.77;1.25;;;;;;;24.37;38.69;94664.81;4986424;28;20105;-71
2021/01/11 08:35:20;;;;;;;1.95;1.02;;;;;;;24.39;38.49;94662.28;4970510;28;20553;-71
2021/01/11 08:37:45;;;;;;;2.72;1.15;;;;;;;24.36;38.84;94668.78;4971494;28;20030;-71
2021/01/11 08:40:11;;;;;;;1.77;1.15;;;;;;;24.33;38.76;94675.28;4972209;28;20034;-70
2021/01/11 08:42:38;;;;;;;2.47;1.40;;;;;;;24.29;39.08;94663.94;4969530;28;20731;-71
2021/01/11 08:45:28;;;;;;;2.67;1.58;;;;;;;24.22;38.99;94680.91;4969593;28;20055;-70
2021/01/11 08:48:10;;;;;;;7.03;1.40;;;;;;;24.18;38.96;94680.50;4971607;28;20027;-71
2021/01/11 08:50:39;;;;;;;11.00;2.08;;;;;;;24.10;38.83;94685.09;4971317;28;20031;-70
2021/01/11 08:53:37;;;;;;;15.32;2.70;;;;;;;24.05;38.83;94694.13;4971600;28;20026;-71
2021/01/11 08:56:08;;;;;;;14.48;2.58;;;;;;;24.05;39.08;94702.31;4949021;28;20054;-71
2021/01/11 08:58:49;;;;;;;11.90;2.88;;;;;;;24.03;39.32;94707.53;4971173;28;20027;-71
2021/01/11 09:01:15;;;;;;;13.75;4.07;;;;;;;24.01;39.00;94704.59;4971516;28;20026;-71
2021/01/11 09:03:44;;;;;;;14.38;3.30;;;;;;;23.99;38.92;94701.66;4970573;28;20141;-70
2021/01/11 09:06:10;;;;;;;11.65;2.40;;;;;;;23.98;38.87;94700.19;4985920;28;20042;-71
2021/01/11 09:08:36;;;;;;;20.80;3.92;;;;;;;23.78;39.18;94675.47;4969746;28;20105;-71
2021/01/11 09:11:11;;;;;;;19.52;3.78;;;;;;;23.85;39.69;94690.50;4986026;28;20034;-70
2021/01/11 09:13:36;;;;;;;20.30;3.88;;;;;;;23.86;39.69;94691.97;4968837;28;20554;-71
2021/01/11 09:16:14;;;;;;;18.70;3.55;;;;;;;23.86;39.63;94690.69;4970971;28;20035;-71
2021/01/11 09:18:39;;;;;;;15.55;3.45;;;;;;;23.86;39.22;94696.16;4971163;28;20082;-71
2021/01/11 09:21:07;;;;;;;17.05;3.17;;;;;;;23.69;39.36;94672.38;4970272;28;20500;-71
2021/01/11 09:23:32;;;;;;;16.88;3.40;;;;;;;23.82;39.84;94707.88;4969810;28;20069;-71
2021/01/11 09:25:58;;;;;;;18.38;3.40;;;;;;;23.80;39.76;94702.22;4970536;28;20454;-70
2021/01/11 09:28:23;;;;;;;18.20;3.50;;;;;;;23.76;39.55;94699.78;4970182;28;20014;-70
2021/01/11 09:30:51;;;;;;;17.05;3.65;;;;;;;23.74;39.63;94696.13;4876455;28;20448;-71
2021/01/11 09:33:16;;;;;;;17.27;3.95;;;;;;;23.71;39.46;94697.16;4940643;28;20035;-71
2021/01/11 09:35:42;;;;;;;17.98;4.05;;;;;;;23.63;39.79;94696.25;4917076;28;20468;-71
2021/01/11 09:38:07;;;;;;;19.63;3.55;;;;;;;23.70;39.50;94706.59;4950933;28;20019;-69
2021/01/11 09:40:33;;;;;;;18.30;4.18;;;;;;;23.65;39.79;94699.22;4951078;28;20089;-70
2021/01/11 09:42:59;;;;;;;17.83;3.50;;;;;;;23.68;39.43;94717.28;4950022;28;20027;-70
2021/01/11 09:45:24;;;;;;;18.15;4.20;;;;;;;23.65;39.75;94705.41;4949034;28;20496;-70
2021/01/11 09:47:50;;;;;;;18.60;3.80;;;;;;;23.63;39.52;94688.06;4951079;28;20405;-70
2021/01/11 09:50:15;;;;;;;17.67;3.63;;;;;;;23.60;39.70;94695.31;4950754;28;20070;-70
2021/01/11 09:52:41;;;;;;;17.35;3.75;;;;;;;23.35;39.36;94663.22;4950639;28;20023;-69
2021/01/11 09:55:07;;;;;;;17.48;4.60;;;;;;;23.64;39.57;94687.56;4951074;28;20114;-69
2021/01/11 09:57:36;;;;;;;15.85;3.60;;;;;;;23.66;39.64;94684.31;4950837;28;20015;-70
2021/01/11 10:00:12;;;;;;;18.13;3.83;;;;;;;23.66;39.32;94684.31;4965996;28;20058;-70
2021/01/11 10:02:47;;;;;;;10.77;3.33;;;;;;;23.66;39.37;94695.22;4951217;28;20054;-72
2021/01/11 10:05:12;;;;;;;16.65;3.70;;;;;;;23.58;39.31;94694.34;4954626;28;20038;-73
2021/01/11 10:07:39;;;;;;;15.15;4.07;;;;;;;23.53;39.93;94708.78;4954507;28;20031;-72
2021/01/11 10:10:05;;;;;;;12.88;3.65;;;;;;;23.52;40.06;94696.41;4953640;28;20027;-75
2021/01/11 10:12:30;;;;;;;15.68;3.35;;;;;;;23.52;40.22;94691.69;4951306;28;20138;-73
2021/01/11 10:14:55;;;;;;;11.57;3.53;;;;;;;23.51;40.69;94689.47;4949478;29;20023;-70
2021/01/11 10:17:21;;;;;;;21.05;3.70;;;;;;;23.53;40.60;94695.91;4951368;28;20039;-72
2021/01/11 10:19:47;;;;;;;14.45;3.58;;;;;;;23.60;40.83;94678.19;4951299;28;20523;-72
2021/01/11 10:22:12;;;;;;;14.65;3.60;;;;;;;23.61;41.20;94655.88;4951365;28;20023;-73
2021/01/11 10:24:38;;;;;;;16.92;3.60;;;;;;;23.62;40.78;94672.97;4951145;28;20085;-73
2021/01/11 10:27:03;;;;;;;11.70;4.72;;;;;;;23.63;41.06;94674.44;4950803;28;20712;-72
2021/01/11 10:29:29;;;;;;;10.25;4.07;;;;;;;23.60;41.13;94659.13;4951015;28;20109;-72
2021/01/11 10:31:54;;;;;;;11.43;3.60;;;;;;;23.60;41.40;94653.66;4949598;29;20020;-72
2021/01/11 10:34:20;;;;;;;14.20;3.60;;;;;;;23.56;41.15;94662.16;4950854;28;20035;-74
2021/01/11 10:36:47;;;;;;;9.30;3.42;;;;;;;23.56;40.62;94658.69;4950979;28;20066;-72
2021/01/11 10:39:12;;;;;;;11.02;3.97;;;;;;;23.52;40.62;94666.44;4951757;28;20583;-72
2021/01/11 10:41:38;;;;;;;11.55;3.20;;;;;;;23.51;40.57;94673.13;4950717;28;20529;-73
2021/01/11 10:44:06;;;;;;;10.73;3.42;;;;;;;23.50;40.95;94677.13;4951655;28;20023;-78
2021/01/11 10:46:33;;;;;;;10.82;3.35;;;;;;;23.26;41.44;94639.06;4943520;28;20042;-75
2021/01/11 10:48:58;;;;;;;14.25;5.20;;;;;;;23.47;41.39;94683.59;4935495;29;20036;-74
2021/01/11 10:51:24;;;;;;;10.75;3.65;;;;;;;23.44;41.74;94673.75;4952483;28;20058;-74
2021/01/11 10:53:50;;;;;;;10.82;3.38;;;;;;;23.50;41.57;94669.69;4951550;28;20023;-73
2021/01/11 10:56:15;;;;;;;10.93;3.35;;;;;;;23.55;41.38;94689.94;4966575;28;20023;-75
2021/01/11 10:58:41;;;;;;;11.00;3.70;;;;;;;23.62;41.50;94690.06;4967137;28;20109;-78
2021/01/11 11:01:08;;;;;;;8.32;3.65;;;;;;;23.68;41.00;94665.47;4952332;28;20181;-76
2021/01/11 11:03:34;;;;;;;12.88;3.95;;;;;;;23.76;41.47;94649.97;4952139;28;20051;-73
2021/01/11 11:05:59;;;;;;;9.38;3.22;;;;;;;23.83;41.08;94649.38;4952798;28;20031;-76
2021/01/11 11:08:25;;;;;;;11.13;4.30;;;;;;;23.89;40.64;94665.13;4955299;28;20089;-77
2021/01/11 11:10:50;;;;;;;9.90;3.78;;;;;;;23.89;40.75;94667.84;4971750;28;20034;-74
2021/01/11 11:13:17;;;;;;;10.80;4.32;;;;;;;24.02;40.71;94695.16;4954710;28;20042;-74
2021/01/11 11:15:46;;;;;;;12.48;3.72;;;;;;;24.10;40.42;94696.00;4955362;28;20471;-75
2021/01/11 11:18:12;;;;;;;12.25;4.00;;;;;;;24.19;40.08;94703.78;4956390;28;20019;-78
2021/01/11 11:20:38;;;;;;;11.18;3.83;;;;;;;24.12;40.00;94677.13;4956025;28;20485;-85
2021/01/11 11:23:04;;;;;;;9.70;3.55;;;;;;;24.39;39.67;94673.19;4964363;28;20059;-78
2021/01/11 11:25:30;;;;;;;10.30;3.83;;;;;;;24.47;39.49;94679.53;4949073;29;20449;-75
2021/01/11 11:27:55;;;;;;;9.10;3.00;;;;;;;24.53;39.52;94682.88;4956315;28;20456;-75
2021/01/11 11:30:21;;;;;;;12.50;3.42;;;;;;;24.62;39.33;94647.69;4969845;28;20019;-70
2021/01/11 11:32:49;;;;;;;12.77;3.65;;;;;;;24.68;39.14;94639.38;4953768;28;20027;-71
2021/01/11 11:35:16;;;;;;;11.10;3.28;;;;;;;24.78;38.82;94656.81;4953730;28;20500;-71